createdAt,value
2023-03-16T18:56:28.627Z,99396.75
2023-03-16T18:58:56.760Z,99399.19
2023-03-16T19:01:30.896Z,99392.53
2023-03-16T19:03:59.247Z,99395.59
2023-03-16T19:06:34.949Z,99395.19
2023-03-16T19:09:07.805Z,99402.22
2023-03-16T19:11:40.645Z,99395.72
2023-03-16T19:14:23.645Z,99394.50
2023-03-16T19:16:51.837Z,99381.47
2023-03-16T19:19:22.817Z,99392.41
2023-03-16T19:21:52.905Z,99387.56
2023-03-16T19:24:42.546Z,99389.22
2023-03-16T19:27:25.699Z,99391.00
2023-03-16T19:29:54.061Z,99379.09
2023-03-16T19:32:22.316Z,99378.13
2023-03-16T19:34:49.181Z,99386.84
2023-03-16T19:37:19.673Z,99391.66
2023-03-16T19:39:46.619Z,99388.44
2023-03-16T19:42:19.442Z,99392.09
2023-03-16T19:44:49.328Z,99401.06
2023-03-16T19:47:27.991Z,99404.66
2023-03-16T19:49:55.207Z,99407.69
2023-03-16T19:52:21.894Z,99398.38
2023-03-16T19:54:48.679Z,99394.13
2023-03-16T19:57:17.988Z,99395.91
2023-03-16T19:59:48.958Z,99408.72
2023-03-16T20:02:23.604Z,99400.69
2023-03-16T20:04:50.363Z,99404.72
2023-03-16T20:07:17.433Z,99399.63
2023-03-16T20:09:45.141Z,99400.00
2023-03-16T20:12:24.829Z,99401.94
2023-03-16T20:14:52.314Z,99400.84
2023-03-16T20:17:24.965Z,99401.50
2023-03-16T20:19:53.124Z,99405.09
2023-03-16T20:22:22.371Z,99405.56
2023-03-16T20:24:51.113Z,99412.91
2023-03-16T20:27:20.001Z,99410.97
2023-03-16T20:29:47.179Z,99408.63
2023-03-16T20:32:28.007Z,99412.91
2023-03-16T20:34:54.839Z,99420.88
2023-03-16T20:37:24.637Z,99420.03
2023-03-16T20:39:55.756Z,99421.63
2023-03-16T20:42:31.722Z,99411.19
2023-03-16T20:44:59.108Z,99413.69
2023-03-16T20:47:26.785Z,99417.06
2023-03-16T20:50:00.330Z,99423.56
2023-03-16T20:52:30.813Z,99422.03
2023-03-16T20:54:58.851Z,99419.00
2023-03-16T20:57:27.415Z,99418.97
2023-03-16T20:59:55.619Z,99418.31
2023-03-16T21:02:35.229Z,99416.59
2023-03-16T21:05:05.216Z,99419.25
2023-03-16T21:07:32.454Z,99428.09
2023-03-16T21:09:59.296Z,99423.00
2023-03-16T21:12:30.909Z,99432.09
2023-03-16T21:14:59.071Z,99436.19
2023-03-16T21:17:29.467Z,99429.94
2023-03-16T21:19:56.604Z,99438.88
2023-03-16T21:22:29.346Z,99434.34
2023-03-16T21:24:56.508Z,99435.94
2023-03-16T21:27:32.521Z,99432.09
2023-03-16T21:30:02.885Z,99442.13
2023-03-16T21:32:30.975Z,99437.38
2023-03-16T21:34:57.858Z,99434.91
2023-03-16T21:37:24.691Z,99429.13
2023-03-16T21:39:52.444Z,99437.00
2023-03-16T21:42:19.881Z,99425.22
2023-03-16T21:44:46.746Z,99430.13
2023-03-16T21:47:26.653Z,99424.84
2023-03-16T21:49:54.721Z,99427.28
2023-03-16T21:52:27.871Z,99427.84
2023-03-16T21:54:57.012Z,99424.91
2023-03-16T21:57:24.201Z,99437.06
2023-03-16T21:59:51.273Z,99426.25
2023-03-16T22:02:22.817Z,99419.84
2023-03-16T22:04:51.223Z,99422.22
2023-03-16T22:07:18.337Z,99417.69
2023-03-16T22:09:46.108Z,99427.53
2023-03-16T22:12:14.110Z,99435.53
2023-03-16T22:14:41.087Z,99436.72
2023-03-16T22:17:16.891Z,99443.66
2023-03-16T22:19:43.676Z,99424.16
2023-03-16T22:22:15.092Z,99429.50
2023-03-16T22:24:42.046Z,99437.00
2023-03-16T22:27:26.889Z,99425.22
2023-03-16T22:29:53.634Z,99418.44
2023-03-16T22:32:22.905Z,99419.50
2023-03-16T22:34:51.287Z,99430.09
2023-03-16T22:37:24.411Z,99430.78
2023-03-16T22:39:53.047Z,99429.97
2023-03-16T22:42:19.724Z,99427.94
2023-03-16T22:44:46.521Z,99421.00
2023-03-16T22:47:26.419Z,99424.31
2023-03-16T22:49:53.924Z,99409.66
2023-03-16T22:52:25.646Z,99407.38
2023-03-16T22:54:52.954Z,99409.75
2023-03-16T22:57:20.153Z,99416.31
2023-03-16T22:59:48.776Z,99413.13
2023-03-16T23:02:16.193Z,99412.19
2023-03-16T23:04:43.121Z,99411.69
2023-03-16T23:07:14.070Z,99411.97
2023-03-16T23:09:40.941Z,99408.13
2023-03-16T23:12:15.132Z,99407.94
2023-03-16T23:14:42.334Z,99417.72
2023-03-16T23:17:22.408Z,99421.03
2023-03-16T23:19:49.330Z,99421.59
2023-03-16T23:22:16.376Z,99424.94
2023-03-16T23:24:43.357Z,99412.72
2023-03-16T23:27:18.116Z,99417.06
2023-03-16T23:29:45.041Z,99413.28
2023-03-16T23:32:11.989Z,99413.63
2023-03-16T23:34:38.696Z,99418.09
2023-03-16T23:37:05.494Z,99419.44
2023-03-16T23:39:32.341Z,99424.91
2023-03-16T23:41:59.257Z,99431.78
2023-03-16T23:44:29.129Z,99427.00
2023-03-16T23:46:56.193Z,99432.13
2023-03-16T23:49:26.574Z,99423.22
2023-03-16T23:51:56.303Z,99421.00
2023-03-16T23:54:26.306Z,99417.81
2023-03-16T23:56:53.306Z,99419.06
2023-03-16T23:59:21.088Z,99416.06
